Time;durP1;ratioP1;P1;durP2;ratioP2;P2;SDS_P1;SDS_P2;PMS_P1;PMS_P2;Temp;Humidity;BMP_temperature;BMP_pressure;BME280_temperature;BME280_humidity;BME280_pressure;Samples;Min_cycle;Max_cycle;Signal;HPM_P1;HPM_P2
2022/09/18 00:00:46;;;;;;;2.47;0.80;;;;;;;;;;4788685;30;20031;-68
2022/09/18 00:03:13;;;;;;;3.83;0.90;;;;;;;;;;4788448;29;20046;-67
2022/09/18 00:05:39;;;;;;;3.03;0.80;;;;;;;;;;4787973;30;20035;-68
2022/09/18 00:08:06;;;;;;;3.70;0.82;;;;;;;;;;4788465;30;20039;-68
2022/09/18 00:10:33;;;;;;;2.80;0.88;;;;;;;;;;4789088;29;20035;-67
2022/09/18 00:12:59;;;;;;;3.40;0.70;;;;;;;;;;4806296;29;20057;-67
2022/09/18 00:15:26;;;;;;;2.83;0.68;;;;;;;;;;4806222;29;20031;-67
2022/09/18 00:17:52;;;;;;;2.47;0.88;;;;;;;;;;4806294;29;20037;-68
2022/09/18 00:20:19;;;;;;;3.38;0.90;;;;;;;;;;4805862;29;20054;-68
2022/09/18 00:22:46;;;;;;;2.05;0.63;;;;;;;;;;4806434;29;20029;-68
2022/09/18 00:25:12;;;;;;;7.07;0.80;;;;;;;;;;4805638;29;20035;-68
2022/09/18 00:27:38;;;;;;;3.13;0.77;;;;;;;;;;4806090;29;20035;-68
2022/09/18 00:30:05;;;;;;;0.90;0.50;;;;;;;;;;4806022;29;20386;-68
2022/09/18 00:32:31;;;;;;;4.85;0.70;;;;;;;;;;4798565;29;20027;-67
2022/09/18 00:34:57;;;;;;;3.22;0.70;;;;;;;;;;4787605;30;20035;-67
2022/09/18 00:37:24;;;;;;;4.80;0.75;;;;;;;;;;4788151;30;20047;-68
2022/09/18 00:39:50;;;;;;;3.13;0.65;;;;;;;;;;4787824;30;20472;-67
2022/09/18 00:42:18;;;;;;;3.40;0.90;;;;;;;;;;4787803;30;20039;-67
2022/09/18 00:44:46;;;;;;;4.47;1.08;;;;;;;;;;4787839;30;20038;-68
2022/09/18 00:47:21;;;;;;;1.80;0.70;;;;;;;;;;4787805;30;20023;-67
2022/09/18 00:49:50;;;;;;;3.05;0.77;;;;;;;;;;4787454;30;20031;-67
2022/09/18 00:52:17;;;;;;;4.03;0.60;;;;;;;;;;4787715;30;20190;-68
2022/09/18 00:54:46;;;;;;;3.10;0.80;;;;;;;;;;4787915;29;20027;-67
2022/09/18 00:57:17;;;;;;;3.00;0.70;;;;;;;;;;4787502;30;20038;-68
2022/09/18 00:59:46;;;;;;;3.33;0.70;;;;;;;;;;4787632;30;20031;-67
2022/09/18 01:02:12;;;;;;;3.20;0.70;;;;;;;;;;4787477;30;20405;-68
2022/09/18 01:04:38;;;;;;;6.07;1.33;;;;;;;;;;4785954;29;20046;-67
2022/09/18 01:07:05;;;;;;;4.38;0.70;;;;;;;;;;4787342;30;20028;-67
2022/09/18 01:09:41;;;;;;;1.80;0.57;;;;;;;;;;4787644;30;20042;-67
2022/09/18 01:12:14;;;;;;;4.25;0.70;;;;;;;;;;4799913;29;20062;-68
2022/09/18 01:14:43;;;;;;;2.00;0.73;;;;;;;;;;4805383;29;20371;-68
2022/09/18 01:17:12;;;;;;;3.47;0.90;;;;;;;;;;4805197;29;20459;-67
2022/09/18 01:19:45;;;;;;;3.58;1.02;;;;;;;;;;4805094;29;20031;-67
2022/09/18 01:22:22;;;;;;;3.22;1.02;;;;;;;;;;4805346;29;20027;-68
2022/09/18 01:24:58;;;;;;;3.17;0.75;;;;;;;;;;4805361;29;20026;-67
2022/09/18 01:27:39;;;;;;;5.30;0.82;;;;;;;;;;4805256;29;20039;-67
2022/09/18 01:30:09;;;;;;;1.63;0.60;;;;;;;;;;4804228;29;20019;-67
2022/09/18 01:32:45;;;;;;;5.53;0.80;;;;;;;;;;4796885;29;20084;-67
2022/09/18 01:35:15;;;;;;;4.63;0.88;;;;;;;;;;4786958;30;20028;-67
2022/09/18 01:37:43;;;;;;;5.25;0.80;;;;;;;;;;4786360;29;20035;-68
2022/09/18 01:40:36;;;;;;;4.57;1.02;;;;;;;;;;4787100;30;20084;-67
2022/09/18 01:43:05;;;;;;;4.18;0.80;;;;;;;;;;4786048;30;20047;-67
2022/09/18 01:45:33;;;;;;;1.52;0.50;;;;;;;;;;4787192;30;20037;-67
2022/09/18 01:48:02;;;;;;;3.85;0.73;;;;;;;;;;4786689;30;20034;-68
2022/09/18 01:50:30;;;;;;;5.57;1.08;;;;;;;;;;4787139;30;20037;-67
2022/09/18 01:53:10;;;;;;;3.15;0.70;;;;;;;;;;4786889;30;20401;-67
2022/09/18 01:55:37;;;;;;;3.88;0.88;;;;;;;;;;4787234;30;20038;-67
2022/09/18 01:58:12;;;;;;;5.50;1.33;;;;;;;;;;4786937;30;20046;-67
2022/09/18 02:00:44;;;;;;;2.28;0.60;;;;;;;;;;4787060;30;20024;-67
2022/09/18 02:03:13;;;;;;;4.00;0.77;;;;;;;;;;4786712;29;20028;-67
2022/09/18 02:05:48;;;;;;;6.07;1.00;;;;;;;;;;4786768;30;20030;-67
2022/09/18 02:08:23;;;;;;;4.75;0.98;;;;;;;;;;4786965;30;20027;-67
2022/09/18 02:10:51;;;;;;;4.03;1.00;;;;;;;;;;4789729;29;20035;-67
2022/09/18 02:13:20;;;;;;;4.00;0.75;;;;;;;;;;4804679;29;20386;-67
2022/09/18 02:15:48;;;;;;;4.40;0.82;;;;;;;;;;4804416;29;20517;-68
2022/09/18 02:18:17;;;;;;;4.35;1.00;;;;;;;;;;4804615;29;20035;-67
2022/09/18 02:20:44;;;;;;;3.17;0.85;;;;;;;;;;4805040;29;20034;-67
2022/09/18 02:23:11;;;;;;;3.42;0.68;;;;;;;;;;4804676;29;20031;-67
2022/09/18 02:25:38;;;;;;;2.35;0.73;;;;;;;;;;4804673;29;20033;-68
2022/09/18 02:28:05;;;;;;;5.82;0.90;;;;;;;;;;4804642;29;20038;-67
2022/09/18 02:30:31;;;;;;;5.88;1.23;;;;;;;;;;4804295;29;20027;-67
2022/09/18 02:32:58;;;;;;;3.25;0.93;;;;;;;;;;4794178;29;20032;-67
2022/09/18 02:35:29;;;;;;;5.28;0.95;;;;;;;;;;4786813;30;20029;-68
2022/09/18 02:38:17;;;;;;;5.13;0.80;;;;;;;;;;4786677;30;20049;-67
2022/09/18 02:40:49;;;;;;;6.28;1.08;;;;;;;;;;4786633;30;20056;-67
2022/09/18 02:43:26;;;;;;;5.60;0.90;;;;;;;;;;4786580;29;20027;-67
2022/09/18 02:45:58;;;;;;;6.18;1.00;;;;;;;;;;4784911;29;20100;-67
2022/09/18 02:48:31;;;;;;;7.03;0.93;;;;;;;;;;4788609;29;20490;-67
2022/09/18 02:51:16;;;;;;;5.65;0.90;;;;;;;;;;4789982;30;20034;-68
2022/09/18 02:53:46;;;;;;;4.60;0.70;;;;;;;;;;4789678;30;20061;-68
2022/09/18 02:56:23;;;;;;;6.40;1.20;;;;;;;;;;4789954;30;20039;-67
2022/09/18 02:58:55;;;;;;;3.85;0.90;;;;;;;;;;4789311;30;20050;-66
2022/09/18 03:01:23;;;;;;;4.78;0.95;;;;;;;;;;4789487;30;20043;-67
2022/09/18 03:03:50;;;;;;;3.50;1.02;;;;;;;;;;4789543;29;20036;-67
2022/09/18 03:06:17;;;;;;;6.05;0.82;;;;;;;;;;4789762;30;20042;-67
2022/09/18 03:08:43;;;;;;;5.55;1.20;;;;;;;;;;4789533;30;20028;-67
2022/09/18 03:11:10;;;;;;;1.77;0.82;;;;;;;;;;4794804;29;20029;-68
2022/09/18 03:13:36;;;;;;;3.70;0.57;;;;;;;;;;4807092;29;20042;-67
2022/09/18 03:16:02;;;;;;;4.47;0.90;;;;;;;;;;4807557;29;20045;-67
2022/09/18 03:18:29;;;;;;;2.55;0.80;;;;;;;;;;4807124;29;20043;-67
2022/09/18 03:20:55;;;;;;;3.55;1.00;;;;;;;;;;4807306;29;20055;-68
2022/09/18 03:23:22;;;;;;;6.63;0.90;;;;;;;;;;4807511;29;20034;-67
2022/09/18 03:25:49;;;;;;;3.78;0.80;;;;;;;;;;4807117;29;20042;-67
2022/09/18 03:28:16;;;;;;;6.65;0.82;;;;;;;;;;4806811;29;20420;-68
2022/09/18 03:30:43;;;;;;;5.78;0.80;;;;;;;;;;4807177;29;20035;-67
2022/09/18 03:33:10;;;;;;;2.72;0.85;;;;;;;;;;4794712;29;20035;-67
2022/09/18 03:35:36;;;;;;;3.80;1.20;;;;;;;;;;4789066;29;20533;-67
2022/09/18 03:38:03;;;;;;;6.03;0.90;;;;;;;;;;4788791;30;20409;-67
2022/09/18 03:40:29;;;;;;;4.10;0.95;;;;;;;;;;4788906;30;20023;-67
2022/09/18 03:42:55;;;;;;;4.95;1.10;;;;;;;;;;4788515;30;20043;-67
2022/09/18 03:45:22;;;;;;;4.00;0.95;;;;;;;;;;4789144;30;20027;-67
2022/09/18 03:47:48;;;;;;;3.83;0.90;;;;;;;;;;4788815;30;20019;-67
2022/09/18 03:50:15;;;;;;;3.58;0.70;;;;;;;;;;4788768;29;20035;-67
2022/09/18 03:52:42;;;;;;;2.40;0.65;;;;;;;;;;4788680;30;20558;-67
2022/09/18 03:55:08;;;;;;;5.43;1.08;;;;;;;;;;4788612;30;20027;-67
2022/09/18 03:57:35;;;;;;;1.60;0.70;;;;;;;;;;4788319;30;20548;-67
2022/09/18 04:00:01;;;;;;;8.90;0.88;;;;;;;;;;4787963;29;20037;-67
2022/09/18 04:02:27;;;;;;;3.38;0.90;;;;;;;;;;4789062;30;20083;-68
2022/09/18 04:04:54;;;;;;;3.45;0.93;;;;;;;;;;4788539;30;20030;-68
2022/09/18 04:07:21;;;;;;;6.80;0.93;;;;;;;;;;4788402;30;20027;-67
2022/09/18 04:09:47;;;;;;;1.58;0.70;;;;;;;;;;4788419;30;20045;-68
2022/09/18 04:12:13;;;;;;;5.35;0.95;;;;;;;;;;4801108;29;20057;-67
2022/09/18 04:14:40;;;;;;;6.35;0.77;;;;;;;;;;4806214;29;20082;-67
2022/09/18 04:17:06;;;;;;;4.68;0.75;;;;;;;;;;4806346;29;20026;-67
2022/09/18 04:19:32;;;;;;;2.38;0.85;;;;;;;;;;4806318;29;20049;-67
2022/09/18 04:21:59;;;;;;;5.22;0.80;;;;;;;;;;4806243;29;20030;-67
2022/09/18 04:24:26;;;;;;;4.10;0.70;;;;;;;;;;4806165;29;20023;-67
2022/09/18 04:26:52;;;;;;;4.80;1.08;;;;;;;;;;4805917;29;20027;-67
2022/09/18 04:29:18;;;;;;;4.40;0.82;;;;;;;;;;4806366;29;20027;-67
2022/09/18 04:31:45;;;;;;;5.05;0.70;;;;;;;;;;4804606;29;20062;-67
2022/09/18 04:34:11;;;;;;;3.13;1.02;;;;;;;;;;4788030;30;20031;-67
2022/09/18 04:36:37;;;;;;;8.48;1.00;;;;;;;;;;4788177;30;20035;-67
2022/09/18 04:39:04;;;;;;;2.88;0.80;;;;;;;;;;4787817;30;20050;-68
2022/09/18 04:41:30;;;;;;;4.72;0.85;;;;;;;;;;4787616;30;20024;-67
2022/09/18 04:43:56;;;;;;;5.82;0.70;;;;;;;;;;4787857;29;20036;-67
2022/09/18 04:46:23;;;;;;;3.75;0.47;;;;;;;;;;4787985;30;20031;-67
2022/09/18 04:48:49;;;;;;;3.33;1.23;;;;;;;;;;4787938;30;20031;-67
2022/09/18 04:51:16;;;;;;;1.50;0.60;;;;;;;;;;4786763;29;20038;-67
2022/09/18 04:53:42;;;;;;;7.47;0.85;;;;;;;;;;4787576;30;20090;-67
2022/09/18 04:56:08;;;;;;;5.88;0.75;;;;;;;;;;4787439;30;20046;-67
2022/09/18 04:58:35;;;;;;;3.53;0.75;;;;;;;;;;4787503;30;20042;-67
2022/09/18 05:01:01;;;;;;;7.53;0.90;;;;;;;;;;4787487;30;20035;-67
2022/09/18 05:03:28;;;;;;;2.00;0.65;;;;;;;;;;4787828;30;20046;-67
2022/09/18 05:05:55;;;;;;;4.20;1.00;;;;;;;;;;4787378;30;20027;-67
2022/09/18 05:08:21;;;;;;;4.28;1.05;;;;;;;;;;4787433;30;20023;-67
2022/09/18 05:10:48;;;;;;;2.30;0.80;;;;;;;;;;4789916;29;20027;-67
2022/09/18 05:13:14;;;;;;;6.70;1.02;;;;;;;;;;4805233;29;20050;-67
2022/09/18 05:15:41;;;;;;;5.45;0.88;;;;;;;;;;4805310;29;20030;-68
2022/09/18 05:18:07;;;;;;;6.20;1.00;;;;;;;;;;4805292;29;20072;-67
2022/09/18 05:20:34;;;;;;;5.43;0.93;;;;;;;;;;4805418;29;20037;-67
2022/09/18 05:23:01;;;;;;;4.15;0.55;;;;;;;;;;4805288;29;20039;-67
2022/09/18 05:25:28;;;;;;;3.30;0.80;;;;;;;;;;4805208;29;20053;-70
2022/09/18 05:27:55;;;;;;;5.00;0.90;;;;;;;;;;4805109;29;20033;-70
2022/09/18 05:30:22;;;;;;;5.88;0.75;;;;;;;;;;4805120;29;20031;-67
2022/09/18 05:32:58;;;;;;;6.57;0.98;;;;;;;;;;4795599;29;20512;-68
2022/09/18 05:35:26;;;;;;;8.70;0.95;;;;;;;;;;4787122;30;20497;-67
2022/09/18 05:37:52;;;;;;;4.32;1.10;;;;;;;;;;4787210;30;20035;-67
2022/09/18 05:40:20;;;;;;;1.83;0.80;;;;;;;;;;4786686;30;20039;-67
2022/09/18 05:42:46;;;;;;;6.55;1.02;;;;;;;;;;4787153;29;20384;-67
2022/09/18 05:45:13;;;;;;;7.47;1.00;;;;;;;;;;4787011;29;20039;-67
2022/09/18 05:47:40;;;;;;;2.53;0.80;;;;;;;;;;4785791;29;20065;-68
2022/09/18 05:50:07;;;;;;;5.82;1.15;;;;;;;;;;4787392;29;20030;-68
2022/09/18 05:52:33;;;;;;;2.83;0.80;;;;;;;;;;4786989;29;20027;-68
2022/09/18 05:55:00;;;;;;;4.00;0.80;;;;;;;;;;4786647;30;20036;-68
2022/09/18 05:57:26;;;;;;;6.10;1.20;;;;;;;;;;4787257;30;20035;-68
2022/09/18 05:59:52;;;;;;;9.27;1.00;;;;;;;;;;4786899;30;20024;-68
2022/09/18 06:02:19;;;;;;;1.75;0.70;;;;;;;;;;4786884;30;20038;-67
2022/09/18 06:04:45;;;;;;;4.63;0.80;;;;;;;;;;4786892;30;20493;-68
2022/09/18 06:07:14;;;;;;;5.80;1.00;;;;;;;;;;4787090;30;20035;-68
2022/09/18 06:09:40;;;;;;;4.53;1.27;;;;;;;;;;4786827;29;20378;-67
2022/09/18 06:12:07;;;;;;;3.65;1.08;;;;;;;;;;4798915;29;20043;-67
2022/09/18 06:14:33;;;;;;;2.97;0.85;;;;;;;;;;4804730;29;20068;-68
2022/09/18 06:17:00;;;;;;;8.00;1.40;;;;;;;;;;4804715;29;20034;-68
2022/09/18 06:19:26;;;;;;;3.97;1.00;;;;;;;;;;4804792;29;20035;-68
2022/09/18 06:21:52;;;;;;;4.10;1.02;;;;;;;;;;4804360;29;20251;-67
2022/09/18 06:24:19;;;;;;;6.28;0.88;;;;;;;;;;4808571;29;20038;-68
2022/09/18 06:26:47;;;;;;;3.30;0.70;;;;;;;;;;4808268;29;20481;-68
2022/09/18 06:29:14;;;;;;;3.25;0.93;;;;;;;;;;4808104;29;20053;-68
2022/09/18 06:31:40;;;;;;;3.13;1.00;;;;;;;;;;4806975;29;20474;-68
2022/09/18 06:34:06;;;;;;;6.53;1.38;;;;;;;;;;4790355;30;20039;-68
2022/09/18 06:36:33;;;;;;;4.30;1.20;;;;;;;;;;4789736;30;20038;-68
2022/09/18 06:38:59;;;;;;;5.07;1.02;;;;;;;;;;4789961;30;20049;-68
2022/09/18 06:41:26;;;;;;;3.28;0.98;;;;;;;;;;4790002;30;20035;-68
2022/09/18 06:43:52;;;;;;;6.60;1.25;;;;;;;;;;4789862;30;20047;-68
2022/09/18 06:46:18;;;;;;;8.88;1.17;;;;;;;;;;4790078;30;20032;-68
2022/09/18 06:48:47;;;;;;;2.40;0.90;;;;;;;;;;4788195;29;20059;-68
2022/09/18 06:51:13;;;;;;;4.75;1.30;;;;;;;;;;4789673;29;20034;-68
2022/09/18 06:53:40;;;;;;;3.53;0.90;;;;;;;;;;4788512;30;20049;-68
2022/09/18 06:56:06;;;;;;;4.40;0.93;;;;;;;;;;4789790;30;20024;-68
2022/09/18 06:58:32;;;;;;;4.65;1.00;;;;;;;;;;4789658;29;20054;-68
2022/09/18 07:00:59;;;;;;;7.03;1.20;;;;;;;;;;4789870;29;20108;-68
2022/09/18 07:03:26;;;;;;;2.35;0.93;;;;;;;;;;4789673;30;20040;-68
2022/09/18 07:05:52;;;;;;;5.05;1.00;;;;;;;;;;4789279;30;20035;-68
2022/09/18 07:08:18;;;;;;;4.88;1.10;;;;;;;;;;4788307;30;20039;-68
2022/09/18 07:10:44;;;;;;;4.43;1.10;;;;;;;;;;4791675;29;20027;-68
2022/09/18 07:13:11;;;;;;;5.45;0.80;;;;;;;;;;4807261;29;20061;-68
2022/09/18 07:15:37;;;;;;;6.57;1.02;;;;;;;;;;4807543;29;20042;-68
2022/09/18 07:18:06;;;;;;;4.85;1.05;;;;;;;;;;4807364;29;20099;-68
2022/09/18 07:20:33;;;;;;;2.90;0.80;;;;;;;;;;4806995;29;20027;-68
2022/09/18 07:23:00;;;;;;;4.40;1.00;;;;;;;;;;4807367;29;20036;-68
2022/09/18 07:25:28;;;;;;;8.10;1.20;;;;;;;;;;4807480;29;20035;-68
2022/09/18 07:27:54;;;;;;;7.95;1.45;;;;;;;;;;4807135;29;20473;-67
2022/09/18 07:30:21;;;;;;;5.20;1.23;;;;;;;;;;4807358;29;20031;-68
2022/09/18 07:32:47;;;;;;;7.85;1.23;;;;;;;;;;4797525;29;20408;-68
2022/09/18 07:35:14;;;;;;;1.52;0.98;;;;;;;;;;4787601;29;20035;-68
2022/09/18 07:37:40;;;;;;;4.75;1.15;;;;;;;;;;4789127;30;20027;-68
2022/09/18 07:40:08;;;;;;;8.90;1.90;;;;;;;;;;4789038;29;20499;-68
2022/09/18 07:42:34;;;;;;;4.28;0.98;;;;;;;;;;4787593;29;20035;-67
2022/09/18 07:45:01;;;;;;;7.38;1.30;;;;;;;;;;4788910;30;20406;-68
2022/09/18 07:47:27;;;;;;;6.45;1.38;;;;;;;;;;4788997;29;20042;-68
2022/09/18 07:49:54;;;;;;;6.18;1.48;;;;;;;;;;4788403;30;20034;-69
2022/09/18 07:52:20;;;;;;;3.95;1.27;;;;;;;;;;4788781;30;20397;-68
2022/09/18 07:54:47;;;;;;;7.10;1.40;;;;;;;;;;4789031;30;20023;-68
2022/09/18 07:57:13;;;;;;;6.72;1.50;;;;;;;;;;4788551;30;20031;-68
2022/09/18 07:59:39;;;;;;;5.35;1.17;;;;;;;;;;4788605;30;20039;-68
2022/09/18 08:02:06;;;;;;;5.57;1.60;;;;;;;;;;4788667;30;20401;-69
2022/09/18 08:04:33;;;;;;;5.30;1.42;;;;;;;;;;4788147;29;20487;-69
2022/09/18 08:07:02;;;;;;;3.15;1.25;;;;;;;;;;4788421;30;20032;-69
2022/09/18 08:09:29;;;;;;;4.72;1.33;;;;;;;;;;4787598;29;20043;-69
2022/09/18 08:11:55;;;;;;;3.83;1.10;;;;;;;;;;4799374;29;20047;-68
2022/09/18 08:14:22;;;;;;;6.10;1.77;;;;;;;;;;4806579;29;20033;-69
2022/09/18 08:16:48;;;;;;;2.78;1.48;;;;;;;;;;4806382;29;20420;-69
2022/09/18 08:19:14;;;;;;;2.95;1.20;;;;;;;;;;4806098;29;20046;-69
2022/09/18 08:21:40;;;;;;;1.58;1.00;;;;;;;;;;4806478;29;20037;-69
2022/09/18 08:24:07;;;;;;;4.72;1.35;;;;;;;;;;4806332;29;20489;-69
2022/09/18 08:26:37;;;;;;;3.05;1.33;;;;;;;;;;4806121;29;20027;-69
2022/09/18 08:29:04;;;;;;;3.50;1.42;;;;;;;;;;4805966;29;20034;-70
2022/09/18 08:31:30;;;;;;;5.72;1.20;;;;;;;;;;4806143;29;20023;-69
2022/09/18 08:33:56;;;;;;;3.28;1.40;;;;;;;;;;4769897;30;20039;-69
2022/09/18 08:36:23;;;;;;;2.30;1.17;;;;;;;;;;4770440;30;20031;-69
2022/09/18 08:38:52;;;;;;;3.45;1.20;;;;;;;;;;4770155;30;20046;-69
2022/09/18 08:41:27;;;;;;;2.13;1.10;;;;;;;;;;4768930;30;20038;-68
2022/09/18 08:43:53;;;;;;;3.05;1.17;;;;;;;;;;4770254;30;20034;-69
2022/09/18 08:46:51;;;;;;;3.30;1.48;;;;;;;;;;4769765;30;20038;-69
2022/09/18 08:49:24;;;;;;;3.28;1.20;;;;;;;;;;4750064;30;20515;-69
2022/09/18 08:51:50;;;;;;;2.42;1.30;;;;;;;;;;4750078;30;20036;-69
2022/09/18 08:54:35;;;;;;;1.70;1.13;;;;;;;;;;4749750;30;20029;-70
2022/09/18 08:57:05;;;;;;;4.97;1.58;;;;;;;;;;4750152;30;20040;-70
2022/09/18 08:59:33;;;;;;;3.40;1.20;;;;;;;;;;4749931;30;20056;-69
2022/09/18 09:02:18;;;;;;;3.17;1.45;;;;;;;;;;4734911;30;20044;-69
2022/09/18 09:04:45;;;;;;;3.03;1.58;;;;;;;;;;4749825;30;20050;-70
2022/09/18 09:07:16;;;;;;;2.65;1.10;;;;;;;;;;4749996;30;20067;-69
2022/09/18 09:09:43;;;;;;;2.97;1.30;;;;;;;;;;4749788;30;20136;-69
2022/09/18 09:12:12;;;;;;;2.90;1.45;;;;;;;;;;4775256;30;20054;-69
2022/09/18 09:14:45;;;;;;;2.20;1.15;;;;;;;;;;4785585;30;20041;-69
2022/09/18 09:17:31;;;;;;;2.65;1.10;;;;;;;;;;4785097;30;20051;-69
2022/09/18 09:20:05;;;;;;;2.22;1.15;;;;;;;;;;4785114;30;20425;-69
2022/09/18 09:22:47;;;;;;;2.55;1.15;;;;;;;;;;4785215;30;20034;-69
2022/09/18 09:25:13;;;;;;;2.25;1.17;;;;;;;;;;4798185;29;20107;-69
2022/09/18 09:27:47;;;;;;;3.25;1.00;;;;;;;;;;4805478;29;20030;-70
2022/09/18 09:30:18;;;;;;;3.70;1.20;;;;;;;;;;4805051;29;20039;-70
2022/09/18 09:32:49;;;;;;;1.90;1.05;;;;;;;;;;4796607;29;20035;-69
2022/09/18 09:35:17;;;;;;;5.35;0.95;;;;;;;;;;4787014;29;20024;-69
2022/09/18 09:37:44;;;;;;;2.30;1.00;;;;;;;;;;4787055;29;20047;-69
2022/09/18 09:40:14;;;;;;;2.75;1.20;;;;;;;;;;4787326;30;20039;-69
2022/09/18 09:42:49;;;;;;;3.03;1.15;;;;;;;;;;4787049;30;20038;-69
2022/09/18 09:45:15;;;;;;;2.40;0.90;;;;;;;;;;4786538;30;20061;-69
2022/09/18 09:48:05;;;;;;;2.88;1.13;;;;;;;;;;4786978;30;20397;-69
2022/09/18 09:50:38;;;;;;;2.97;1.10;;;;;;;;;;4784323;30;20047;-69
2022/09/18 09:53:08;;;;;;;2.28;1.10;;;;;;;;;;4787067;29;20544;-69
2022/09/18 09:55:40;;;;;;;3.03;1.08;;;;;;;;;;4787162;30;20029;-69
2022/09/18 09:58:09;;;;;;;1.90;0.70;;;;;;;;;;4788855;29;20048;-69
2022/09/18 10:00:40;;;;;;;3.42;1.10;;;;;;;;;;4790311;29;20041;-69
2022/09/18 10:03:19;;;;;;;2.72;1.00;;;;;;;;;;4790845;30;20028;-69
2022/09/18 10:06:04;;;;;;;2.95;1.00;;;;;;;;;;4790548;30;20039;-69
2022/09/18 10:08:51;;;;;;;2.25;1.00;;;;;;;;;;4790518;30;20542;-69
2022/09/18 10:11:18;;;;;;;3.13;1.08;;;;;;;;;;4797185;29;20035;-69
2022/09/18 10:13:47;;;;;;;2.92;1.63;;;;;;;;;;4807840;29;20061;-72
2022/09/18 10:16:17;;;;;;;2.45;1.00;;;;;;;;;;4808494;29;20027;-69
2022/09/18 10:18:45;;;;;;;3.55;1.00;;;;;;;;;;4808227;29;20045;-69
2022/09/18 10:21:33;;;;;;;1.80;1.00;;;;;;;;;;4808330;29;20039;-69
2022/09/18 10:24:16;;;;;;;3.00;1.08;;;;;;;;;;4808117;29;20091;-69
2022/09/18 10:26:50;;;;;;;2.22;1.00;;;;;;;;;;4808258;29;20079;-69
2022/09/18 10:29:17;;;;;;;3.97;1.10;;;;;;;;;;4806680;29;20378;-69
2022/09/18 10:31:48;;;;;;;1.55;0.82;;;;;;;;;;4806505;29;20033;-69
2022/09/18 10:34:29;;;;;;;2.13;1.00;;;;;;;;;;4790106;30;20490;-70
2022/09/18 10:36:56;;;;;;;3.72;1.40;;;;;;;;;;4790268;29;20043;-69
2022/09/18 10:39:30;;;;;;;2.97;1.10;;;;;;;;;;4789947;30;20051;-69
2022/09/18 10:42:00;;;;;;;3.22;1.38;;;;;;;;;;4790018;29;20039;-69
2022/09/18 10:44:37;;;;;;;2.20;1.20;;;;;;;;;;4789432;30;20520;-69
2022/09/18 10:47:05;;;;;;;2.55;1.20;;;;;;;;;;4789754;30;20078;-69
2022/09/18 10:49:33;;;;;;;2.65;1.40;;;;;;;;;;4789948;30;20397;-69
2022/09/18 10:52:19;;;;;;;6.18;1.33;;;;;;;;;;4789866;29;20027;-69
2022/09/18 10:54:59;;;;;;;1.83;1.02;;;;;;;;;;4789975;30;20095;-69
2022/09/18 10:57:30;;;;;;;3.92;1.25;;;;;;;;;;4789517;30;20019;-69
2022/09/18 10:59:56;;;;;;;1.95;1.00;;;;;;;;;;4789547;30;20050;-69
2022/09/18 11:02:25;;;;;;;2.22;1.20;;;;;;;;;;4788402;29;20485;-69
2022/09/18 11:04:52;;;;;;;2.95;1.10;;;;;;;;;;4789925;30;20039;-69
2022/09/18 11:07:19;;;;;;;2.55;1.05;;;;;;;;;;4789766;29;20032;-69
2022/09/18 11:09:46;;;;;;;5.97;1.20;;;;;;;;;;4789593;29;20036;-69
2022/09/18 11:12:29;;;;;;;2.88;1.23;;;;;;;;;;4801970;29;20505;-69
2022/09/18 11:15:03;;;;;;;1.90;1.10;;;;;;;;;;4807435;29;20386;-69
2022/09/18 11:17:31;;;;;;;2.28;1.23;;;;;;;;;;4807442;29;20045;-69
2022/09/18 11:19:58;;;;;;;3.35;1.48;;;;;;;;;;4807370;29;20039;-69
2022/09/18 11:22:41;;;;;;;2.45;1.20;;;;;;;;;;4807230;29;20396;-69
2022/09/18 11:25:13;;;;;;;3.38;1.25;;;;;;;;;;4807299;29;20027;-69
2022/09/18 11:27:44;;;;;;;3.05;1.40;;;;;;;;;;4806894;29;20038;-68
2022/09/18 11:30:22;;;;;;;2.20;1.33;;;;;;;;;;4807213;29;20503;-69
2022/09/18 11:32:51;;;;;;;2.45;1.27;;;;;;;;;;4797603;29;20027;-69
2022/09/18 11:35:19;;;;;;;2.08;1.40;;;;;;;;;;4789161;29;20478;-69
2022/09/18 11:37:51;;;;;;;3.42;1.48;;;;;;;;;;4788914;29;20039;-68
2022/09/18 11:40:41;;;;;;;1.92;1.52;;;;;;;;;;4789089;29;20047;-69
2022/09/18 11:43:14;;;;;;;1.90;1.23;;;;;;;;;;4788603;30;20044;-69
2022/09/18 11:45:46;;;;;;;1.70;1.13;;;;;;;;;;4788842;30;20498;-69
2022/09/18 11:48:21;;;;;;;2.75;1.50;;;;;;;;;;4788926;29;20494;-69
2022/09/18 11:50:48;;;;;;;2.42;1.33;;;;;;;;;;4788898;30;20031;-69
2022/09/18 11:53:29;;;;;;;1.30;1.10;;;;;;;;;;4789072;29;20035;-69
2022/09/18 11:56:11;;;;;;;3.80;1.38;;;;;;;;;;4788677;30;20091;-69
2022/09/18 11:58:40;;;;;;;2.15;1.13;;;;;;;;;;4788597;30;20043;-69
2022/09/18 12:01:25;;;;;;;2.00;1.30;;;;;;;;;;4788631;30;20034;-70
2022/09/18 12:04:10;;;;;;;1.75;1.38;;;;;;;;;;4788409;29;20034;-69
2022/09/18 12:06:54;;;;;;;1.42;1.20;;;;;;;;;;4788616;30;20031;-69
2022/09/18 12:09:33;;;;;;;2.10;1.50;;;;;;;;;;4788726;30;20084;-70
2022/09/18 12:12:02;;;;;;;1.33;1.20;;;;;;;;;;4800003;29;20071;-70
2022/09/18 12:14:29;;;;;;;3.15;1.70;;;;;;;;;;4806313;29;20039;-70
2022/09/18 12:16:58;;;;;;;2.28;1.50;;;;;;;;;;4806339;29;20055;-70
2022/09/18 12:19:27;;;;;;;2.97;1.75;;;;;;;;;;4806081;29;20033;-70
2022/09/18 12:22:11;;;;;;;1.45;1.30;;;;;;;;;;4805840;29;20031;-70
2022/09/18 12:24:37;;;;;;;1.58;1.30;;;;;;;;;;4805884;29;20039;-69
2022/09/18 12:27:23;;;;;;;2.40;1.40;;;;;;;;;;4806223;29;20035;-70
2022/09/18 12:29:55;;;;;;;3.80;1.60;;;;;;;;;;4806014;29;20043;-70
2022/09/18 12:32:21;;;;;;;2.40;1.58;;;;;;;;;;4798489;29;20516;-70
2022/09/18 12:34:54;;;;;;;1.63;1.52;;;;;;;;;;4788237;30;20039;-70
2022/09/18 12:37:40;;;;;;;1.90;1.70;;;;;;;;;;4787872;30;20083;-67
2022/09/18 12:40:13;;;;;;;2.55;1.80;;;;;;;;;;4787546;30;20037;-67
2022/09/18 12:42:58;;;;;;;1.77;1.48;;;;;;;;;;4788210;30;20031;-67
2022/09/18 12:45:24;;;;;;;4.07;1.52;;;;;;;;;;4787761;30;20031;-68
2022/09/18 12:47:53;;;;;;;2.22;1.65;;;;;;;;;;4787873;29;20031;-67
2022/09/18 12:50:19;;;;;;;;;;;;;;;;;;4787206;30;20043;-67
2022/09/18 12:52:49;;;;;;;1.73;1.63;;;;;;;;;;4787820;29;19909;-68
2022/09/18 12:55:30;;;;;;;1.95;1.65;;;;;;;;;;4786922;30;20401;-67
2022/09/18 12:57:56;;;;;;;2.53;1.52;;;;;;;;;;4787716;30;20049;-68
2022/09/18 13:00:23;;;;;;;3.03;2.15;;;;;;;;;;4787108;30;20034;-67
2022/09/18 13:02:49;;;;;;;1.55;1.45;;;;;;;;;;4787894;30;20035;-67
2022/09/18 13:05:15;;;;;;;2.10;1.60;;;;;;;;;;4787443;30;20405;-67
2022/09/18 13:07:50;;;;;;;3.35;1.73;;;;;;;;;;4787439;30;20042;-68
2022/09/18 13:10:28;;;;;;;2.33;1.65;;;;;;;;;;4787456;30;20505;-67
2022/09/18 13:12:59;;;;;;;3.60;1.40;;;;;;;;;;4787542;30;20059;-68
2022/09/18 13:15:31;;;;;;;2.10;1.85;;;;;;;;;;4787378;29;20537;-67
2022/09/18 13:18:17;;;;;;;3.10;1.60;;;;;;;;;;4787533;30;20032;-68
2022/09/18 13:20:44;;;;;;;4.82;1.70;;;;;;;;;;4786405;30;20023;-68
2022/09/18 13:23:15;;;;;;;3.58;1.80;;;;;;;;;;4786951;30;20061;-67
2022/09/18 13:25:42;;;;;;;3.60;1.90;;;;;;;;;;4787056;30;20074;-67
2022/09/18 13:28:11;;;;;;;3.67;1.60;;;;;;;;;;4787480;30;20031;-67
2022/09/18 13:30:38;;;;;;;1.52;1.42;;;;;;;;;;4787430;30;20035;-68
2022/09/18 13:33:04;;;;;;;1.83;1.50;;;;;;;;;;4786211;30;20030;-67
2022/09/18 13:35:31;;;;;;;2.22;1.75;;;;;;;;;;4786037;30;20153;-67
2022/09/18 13:38:04;;;;;;;2.00;1.80;;;;;;;;;;4786769;29;20027;-67
2022/09/18 13:40:38;;;;;;;1.70;1.60;;;;;;;;;;4785943;30;20038;-68
2022/09/18 13:43:15;;;;;;;2.75;1.60;;;;;;;;;;4786991;30;20053;-67
2022/09/18 13:45:41;;;;;;;2.78;1.58;;;;;;;;;;4787136;30;20038;-68
2022/09/18 13:48:18;;;;;;;4.07;1.67;;;;;;;;;;4786997;29;20031;-68
2022/09/18 13:51:04;;;;;;;1.83;1.73;;;;;;;;;;4787207;30;20397;-67
2022/09/18 13:53:33;;;;;;;2.88;1.73;;;;;;;;;;4786651;30;20496;-67
2022/09/18 13:56:00;;;;;;;2.20;1.48;;;;;;;;;;4786926;29;20205;-68
2022/09/18 13:58:32;;;;;;;2.15;1.60;;;;;;;;;;4786947;29;20039;-68
2022/09/18 14:01:00;;;;;;;1.55;1.45;;;;;;;;;;4786845;29;20062;-67
2022/09/18 14:03:26;;;;;;;2.00;1.80;;;;;;;;;;4786942;30;20024;-67
2022/09/18 14:05:53;;;;;;;2.30;1.48;;;;;;;;;;4786575;30;20042;-67
2022/09/18 14:08:22;;;;;;;2.00;1.63;;;;;;;;;;4786809;29;20053;-67
2022/09/18 14:10:48;;;;;;;1.67;1.58;;;;;;;;;;4789536;29;20031;-67
2022/09/18 14:13:17;;;;;;;3.25;1.67;;;;;;;;;;4804663;29;20545;-67
2022/09/18 14:16:05;;;;;;;2.08;1.52;;;;;;;;;;4803610;29;20039;-67
2022/09/18 14:18:34;;;;;;;2.90;1.90;;;;;;;;;;4805076;29;20087;-70
2022/09/18 14:21:18;;;;;;;1.80;1.70;;;;;;;;;;4804359;29;20039;-70
2022/09/18 14:23:45;;;;;;;3.35;1.70;;;;;;;;;;4804805;29;20031;-70
2022/09/18 14:26:36;;;;;;;4.95;1.70;;;;;;;;;;4804712;29;20038;-70
2022/09/18 14:29:15;;;;;;;3.25;2.08;;;;;;;;;;4804626;29;20493;-70
2022/09/18 14:31:44;;;;;;;2.17;1.52;;;;;;;;;;4803371;29;20031;-70
2022/09/18 14:34:13;;;;;;;1.65;1.55;;;;;;;;;;4787010;30;20035;-70
2022/09/18 14:36:44;;;;;;;2.80;1.63;;;;;;;;;;4786413;30;20505;-70
2022/09/18 14:39:26;;;;;;;3.78;1.50;;;;;;;;;;4786920;30;20046;-70
2022/09/18 14:41:54;;;;;;;1.50;1.40;;;;;;;;;;4786981;30;20039;-70
2022/09/18 14:44:20;;;;;;;4.30;1.63;;;;;;;;;;4788624;29;20024;-69
2022/09/18 14:46:55;;;;;;;1.80;1.70;;;;;;;;;;4790022;29;20028;-69
2022/09/18 14:49:31;;;;;;;3.38;1.60;;;;;;;;;;4789506;29;20562;-68
2022/09/18 14:51:58;;;;;;;2.50;1.70;;;;;;;;;;4789867;30;20034;-70
2022/09/18 14:54:25;;;;;;;1.70;1.60;;;;;;;;;;4789770;30;20551;-70
2022/09/18 14:56:53;;;;;;;1.48;1.35;;;;;;;;;;4789820;29;20441;-69
2022/09/18 14:59:19;;;;;;;2.38;1.60;;;;;;;;;;4789682;30;20030;-69